createdAt,value
2022-08-28T00:01:02.462Z,101041.34
2022-08-28T00:03:30.497Z,101035.28
2022-08-28T00:05:58.332Z,101050.19
2022-08-28T00:08:26.019Z,101039.72
2022-08-28T00:10:53.927Z,101052.06
2022-08-28T00:13:25.346Z,101038.94
2022-08-28T00:15:54.864Z,101048.78
2022-08-28T00:18:23.211Z,101046.28
2022-08-28T00:20:53.161Z,101049.59
2022-08-28T00:23:21.854Z,101052.41
2022-08-28T00:25:49.574Z,101049.75
2022-08-28T00:28:24.325Z,101046.19
2022-08-28T00:30:55.686Z,101056.78
2022-08-28T00:33:24.406Z,101054.34
2022-08-28T00:35:52.597Z,101051.91
2022-08-28T00:38:21.038Z,101056.31
2022-08-28T00:40:50.360Z,101060.59
2022-08-28T00:43:24.215Z,101059.94
2022-08-28T00:45:53.432Z,101061.50
2022-08-28T00:48:21.073Z,101055.44
2022-08-28T00:51:05.614Z,101066.81
2022-08-28T00:53:33.339Z,101055.72
2022-08-28T00:56:04.075Z,101062.09
2022-08-28T00:58:34.771Z,101065.75
2022-08-28T01:01:04.230Z,101066.81
2022-08-28T01:03:31.902Z,101064.25
2022-08-28T01:06:00.041Z,101068.69
2022-08-28T01:08:30.280Z,101061.50
2022-08-28T01:10:59.331Z,101073.03
2022-08-28T01:13:27.650Z,101073.13
2022-08-28T01:15:56.071Z,101073.19
2022-08-28T01:18:26.081Z,101071.63
2022-08-28T01:20:56.723Z,101075.13
2022-08-28T01:23:29.745Z,101064.53
2022-08-28T01:26:00.179Z,101065.66
2022-08-28T01:28:29.114Z,101067.47
2022-08-28T01:30:58.934Z,101073.47
2022-08-28T01:33:28.244Z,101066.53
2022-08-28T01:35:56.662Z,101077.41
2022-08-28T01:38:26.767Z,101070.44
2022-08-28T01:40:57.222Z,101066.06
2022-08-28T01:43:27.603Z,101069.06
2022-08-28T01:45:57.784Z,101066.41
2022-08-28T01:48:27.416Z,101062.88
2022-08-28T01:50:55.323Z,101062.22
2022-08-28T01:53:24.917Z,101064.88
2022-08-28T01:55:53.477Z,101061.28
2022-08-28T01:58:21.811Z,101070.38
2022-08-28T02:00:50.800Z,101067.78
2022-08-28T02:03:18.469Z,101068.59
2022-08-28T02:05:46.847Z,101068.66
2022-08-28T02:08:15.060Z,101071.25
2022-08-28T02:10:44.541Z,101072.16
2022-08-28T02:13:12.697Z,101073.22
2022-08-28T02:15:41.775Z,101071.53
2022-08-28T02:18:11.005Z,101079.53
2022-08-28T02:20:39.195Z,101083.03
2022-08-28T02:23:07.093Z,101081.25
2022-08-28T02:25:34.711Z,101085.81
2022-08-28T02:28:02.579Z,101089.38
2022-08-28T02:30:30.481Z,101089.66
2022-08-28T02:32:58.123Z,101087.09
2022-08-28T02:35:27.153Z,101080.94
2022-08-28T02:37:55.548Z,101084.56
2022-08-28T02:40:24.219Z,101085.56
2022-08-28T02:42:52.285Z,101084.63
2022-08-28T02:45:20.702Z,101081.97
2022-08-28T02:47:48.886Z,101081.97
2022-08-28T02:50:17.943Z,101079.47
2022-08-28T02:52:47.471Z,101081.31
2022-08-28T02:55:17.279Z,101077.03
2022-08-28T02:57:44.875Z,101082.25
2022-08-28T03:00:14.203Z,101077.16
2022-08-28T03:02:42.563Z,101083.50
2022-08-28T03:05:11.143Z,101080.66
2022-08-28T03:07:38.767Z,101078.13
2022-08-28T03:10:08.678Z,101081.59
2022-08-28T03:12:36.457Z,101073.06
2022-08-28T03:15:05.966Z,101083.78
2022-08-28T03:17:33.621Z,101081.91
2022-08-28T03:20:01.324Z,101088.34
2022-08-28T03:22:42.811Z,101084.81
2022-08-28T03:25:12.670Z,101078.91
2022-08-28T03:27:40.274Z,101084.41
2022-08-28T03:30:08.805Z,101081.03
2022-08-28T03:32:36.801Z,101084.47
2022-08-28T03:35:05.457Z,101080.97
2022-08-28T03:37:33.171Z,101088.97
2022-08-28T03:40:01.351Z,101092.53
2022-08-28T03:42:31.079Z,101092.66
2022-08-28T03:45:00.466Z,101097.16
2022-08-28T03:47:29.624Z,101092.00
2022-08-28T03:49:57.851Z,101098.34
2022-08-28T03:52:26.019Z,101098.28
2022-08-28T03:54:53.662Z,101099.50
2022-08-28T03:57:22.035Z,101100.31
2022-08-28T03:59:52.066Z,101100.31
2022-08-28T04:02:20.498Z,101099.47
2022-08-28T04:04:48.508Z,101107.53
2022-08-28T04:07:16.238Z,101100.53
2022-08-28T04:09:43.898Z,101098.03
2022-08-28T04:12:11.691Z,101100.78
2022-08-28T04:14:39.403Z,101099.91
2022-08-28T04:17:08.838Z,101107.03
2022-08-28T04:19:36.507Z,101115.09
2022-08-28T04:22:04.117Z,101112.53
2022-08-28T04:24:32.035Z,101116.09
2022-08-28T04:26:59.712Z,101123.41
2022-08-28T04:29:27.411Z,101118.06
2022-08-28T04:31:56.272Z,101125.13
2022-08-28T04:34:25.256Z,101132.28
2022-08-28T04:36:52.839Z,101125.16
2022-08-28T04:39:20.662Z,101127.94
2022-08-28T04:41:50.032Z,101127.16
2022-08-28T04:44:18.073Z,101132.50
2022-08-28T04:46:48.256Z,101134.22
2022-08-28T04:49:16.353Z,101127.22
2022-08-28T04:51:45.308Z,101133.06
2022-08-28T04:54:14.883Z,101137.28
2022-08-28T04:56:42.579Z,101136.47
2022-08-28T04:59:11.620Z,101138.19
2022-08-28T05:01:39.305Z,101149.63
2022-08-28T05:04:06.953Z,101144.47
2022-08-28T05:06:34.606Z,101147.91
2022-08-28T05:09:04.580Z,101146.91
2022-08-28T05:11:34.615Z,101152.09
2022-08-28T05:14:04.263Z,101152.22
2022-08-28T05:16:32.142Z,101163.72
2022-08-28T05:19:00.286Z,101161.63
2022-08-28T05:21:28.227Z,101166.19
2022-08-28T05:23:57.687Z,101165.38
2022-08-28T05:26:28.338Z,101170.59
2022-08-28T05:28:58.002Z,101172.41
2022-08-28T05:31:26.585Z,101182.00
2022-08-28T05:33:54.368Z,101182.78
2022-08-28T05:36:23.118Z,101184.22
2022-08-28T05:38:56.840Z,101184.28
2022-08-28T05:41:26.877Z,101184.56
2022-08-28T05:43:55.523Z,101182.59
2022-08-28T05:46:23.430Z,101186.81
2022-08-28T05:48:51.187Z,101192.25
2022-08-28T05:51:20.059Z,101191.63
2022-08-28T05:53:50.056Z,101193.91
2022-08-28T05:56:18.592Z,101199.78
2022-08-28T05:58:47.504Z,101191.97
2022-08-28T06:01:17.574Z,101198.94
2022-08-28T06:03:47.853Z,101199.34
2022-08-28T06:06:15.471Z,101199.66
2022-08-28T06:08:58.533Z,101197.59
2022-08-28T06:11:27.278Z,101202.09
2022-08-28T06:14:01.805Z,101206.13
2022-08-28T06:16:31.339Z,101198.56
2022-08-28T06:18:59.485Z,101207.59
2022-08-28T06:21:27.413Z,101205.00
2022-08-28T06:23:55.060Z,101209.31
2022-08-28T06:26:22.925Z,101216.44
2022-08-28T06:28:51.127Z,101215.59
2022-08-28T06:31:23.408Z,101218.16
2022-08-28T06:33:53.871Z,101221.34
2022-08-28T06:36:21.437Z,101224.84
2022-08-28T06:38:49.080Z,101221.66
2022-08-28T06:41:17.015Z,101232.88
2022-08-28T06:43:44.645Z,101237.91
2022-08-28T06:46:12.363Z,101238.44
2022-08-28T06:48:41.449Z,101237.69
2022-08-28T06:51:10.460Z,101239.69
2022-08-28T06:53:38.888Z,101236.84
2022-08-28T06:56:08.446Z,101234.72
2022-08-28T06:58:36.923Z,101234.81
2022-08-28T07:01:05.606Z,101242.19
2022-08-28T07:03:33.392Z,101235.38
2022-08-28T07:06:03.368Z,101236.25
2022-08-28T07:08:31.673Z,101241.50
2022-08-28T07:10:59.779Z,101237.22
2022-08-28T07:13:32.112Z,101242.13
2022-08-28T07:16:01.422Z,101245.59
2022-08-28T07:18:29.107Z,101244.84
2022-08-28T07:20:57.352Z,101246.88
2022-08-28T07:23:26.392Z,101232.53
2022-08-28T07:25:54.052Z,101245.41
2022-08-28T07:28:21.762Z,101239.41
2022-08-28T07:30:56.629Z,101240.38
2022-08-28T07:33:24.316Z,101249.13
2022-08-28T07:35:51.939Z,101247.00
2022-08-28T07:38:19.693Z,101251.41
2022-08-28T07:40:48.724Z,101249.50
2022-08-28T07:43:34.231Z,101252.13
2022-08-28T07:46:02.561Z,101253.31
2022-08-28T07:48:30.187Z,101263.13
2022-08-28T07:50:57.823Z,101260.16
2022-08-28T07:53:25.483Z,101264.50
2022-08-28T07:55:54.511Z,101264.63
2022-08-28T07:58:22.505Z,101269.59
2022-08-28T08:00:50.130Z,101264.41
2022-08-28T08:03:17.745Z,101267.63
2022-08-28T08:05:52.637Z,101270.66
2022-08-28T08:08:20.328Z,101275.13
2022-08-28T08:10:57.609Z,101273.31
2022-08-28T08:13:25.314Z,101275.56
2022-08-28T08:15:53.162Z,101273.75
2022-08-28T08:18:20.898Z,101278.19
2022-08-28T08:20:52.521Z,101274.84
2022-08-28T08:23:20.127Z,101282.31
2022-08-28T08:25:54.842Z,101277.03
2022-08-28T08:28:24.169Z,101286.84
2022-08-28T08:30:52.093Z,101279.91
2022-08-28T08:33:20.203Z,101284.75
2022-08-28T08:35:47.834Z,101287.34
2022-08-28T08:38:15.535Z,101285.59
2022-08-28T08:40:43.235Z,101280.13
2022-08-28T08:43:11.125Z,101292.63
2022-08-28T08:45:43.012Z,101296.53
2022-08-28T08:48:14.206Z,101294.75
2022-08-28T08:50:42.303Z,101301.91
2022-08-28T08:53:16.197Z,101299.19
2022-08-28T08:55:45.118Z,101298.81
2022-08-28T08:58:15.759Z,101300.56
2022-08-28T09:00:50.780Z,101298.06
2022-08-28T09:03:23.096Z,101302.28
2022-08-28T09:05:53.479Z,101305.44
2022-08-28T09:08:28.427Z,101299.09
2022-08-28T09:11:01.741Z,101302.44
2022-08-28T09:13:33.227Z,101303.47
2022-08-28T09:16:04.869Z,101314.84
2022-08-28T09:18:34.552Z,101305.69
2022-08-28T09:21:02.442Z,101312.97
2022-08-28T09:23:31.362Z,101313.41
2022-08-28T09:26:01.722Z,101315.91
2022-08-28T09:28:30.669Z,101317.63
2022-08-28T09:31:00.373Z,101325.31
2022-08-28T09:33:30.261Z,101327.44
2022-08-28T09:35:57.989Z,101318.75
2022-08-28T09:38:28.297Z,101321.28
2022-08-28T09:41:25.195Z,101317.81
2022-08-28T09:43:53.023Z,101316.94
2022-08-28T09:46:22.997Z,101315.53
2022-08-28T09:48:53.055Z,101312.44
2022-08-28T09:51:29.437Z,101314.19
2022-08-28T09:53:59.494Z,101314.06
2022-08-28T09:56:29.521Z,101308.06
2022-08-28T09:58:59.646Z,101306.00
2022-08-28T10:01:37.513Z,101305.13
2022-08-28T10:04:16.718Z,101306.72
2022-08-28T10:06:48.893Z,101305.50
2022-08-28T10:09:22.593Z,101304.47
2022-08-28T10:11:55.450Z,101309.44
2022-08-28T10:14:32.532Z,101308.28
2022-08-28T10:17:06.005Z,101298.53
2022-08-28T10:19:39.807Z,101300.59
2022-08-28T10:22:11.967Z,101303.41
2022-08-28T10:24:50.082Z,101305.00
2022-08-28T10:27:24.444Z,101309.63
2022-08-28T10:29:54.274Z,101313.75
2022-08-28T10:32:32.958Z,101304.16
2022-08-28T10:35:07.000Z,101300.19
2022-08-28T10:37:41.481Z,101311.34
2022-08-28T10:40:11.835Z,101303.47
2022-08-28T10:42:41.740Z,101301.38
2022-08-28T10:45:12.900Z,101301.69
2022-08-28T10:47:42.759Z,101296.16
2022-08-28T10:50:16.249Z,101296.91
2022-08-28T10:52:47.021Z,101299.63
2022-08-28T10:55:18.783Z,101308.19
2022-08-28T10:57:49.027Z,101298.22
2022-08-28T11:00:19.782Z,101305.28
2022-08-28T11:02:50.164Z,101300.06
2022-08-28T11:05:23.384Z,101298.81
2022-08-28T11:07:53.605Z,101305.44
2022-08-28T11:10:23.917Z,101295.59
2022-08-28T11:12:52.720Z,101297.22
2022-08-28T11:15:40.810Z,101302.22
2022-08-28T11:18:26.630Z,101295.34
2022-08-28T11:21:00.902Z,101289.81
2022-08-28T11:23:34.105Z,101299.44
2022-08-28T11:26:04.659Z,101306.31
2022-08-28T11:28:43.804Z,101296.72
2022-08-28T11:31:29.522Z,101290.59
2022-08-28T11:33:59.148Z,101303.34
2022-08-28T11:36:45.523Z,101293.41
2022-08-28T11:39:22.763Z,101298.53
2022-08-28T11:42:09.332Z,101305.53
2022-08-28T11:44:41.933Z,101292.16
2022-08-28T11:47:28.334Z,101284.69
2022-08-28T11:49:55.989Z,101283.94
2022-08-28T11:52:37.487Z,101294.50
2022-08-28T11:55:13.045Z,101301.16
2022-08-28T11:57:48.046Z,101293.03
2022-08-28T12:00:22.160Z,101290.41
2022-08-28T12:03:04.683Z,101302.03
2022-08-28T12:05:52.267Z,101298.47
2022-08-28T12:08:34.751Z,101294.41
2022-08-28T12:11:03.998Z,101295.81
2022-08-28T12:13:49.004Z,101276.09
2022-08-28T12:16:16.658Z,101288.69
2022-08-28T12:18:59.184Z,101294.06
2022-08-28T12:21:28.640Z,101292.69
2022-08-28T12:24:05.327Z,101288.19
2022-08-28T12:26:40.200Z,101295.28
2022-08-28T12:29:17.878Z,101282.41
2022-08-28T12:32:12.524Z,101274.66
2022-08-28T12:34:43.568Z,101283.84
2022-08-28T12:37:24.552Z,101271.94
2022-08-28T12:39:52.960Z,101272.97
2022-08-28T12:42:25.475Z,101268.56
2022-08-28T12:44:53.396Z,101263.59
2022-08-28T12:47:23.588Z,101264.91
2022-08-28T12:49:51.263Z,101266.72
2022-08-28T12:52:20.371Z,101265.47
2022-08-28T12:54:48.694Z,101259.16
2022-08-28T12:57:17.735Z,101260.28
2022-08-28T12:59:47.396Z,101264.50
2022-08-28T13:02:22.018Z,101250.28
2022-08-28T13:04:53.585Z,101251.72
2022-08-28T13:07:26.267Z,101250.53
2022-08-28T13:09:55.284Z,101251.78
2022-08-28T13:12:26.982Z,101247.25
2022-08-28T13:15:14.162Z,101240.88
2022-08-28T13:17:53.023Z,101246.41
2022-08-28T13:20:27.636Z,101249.97
2022-08-28T13:22:55.717Z,101242.56
2022-08-28T13:25:25.405Z,101243.16
2022-08-28T13:27:57.583Z,101240.63
2022-08-28T13:30:27.500Z,101240.34
2022-08-28T13:32:56.752Z,101241.75
2022-08-28T13:35:37.983Z,101237.22
2022-08-28T13:38:08.183Z,101233.59
2022-08-28T13:40:57.478Z,101227.88
2022-08-28T13:43:27.216Z,101229.00
2022-08-28T13:45:56.314Z,101226.31
2022-08-28T13:48:25.174Z,101228.00
2022-08-28T13:50:54.477Z,101229.03
2022-08-28T13:53:22.090Z,101231.56
2022-08-28T13:55:50.345Z,101225.59
2022-08-28T13:58:18.131Z,101222.94
2022-08-28T14:00:46.910Z,101219.88
2022-08-28T14:03:33.795Z,101217.88
2022-08-28T14:06:02.476Z,101212.59
2022-08-28T14:08:30.422Z,101202.66
2022-08-28T14:10:58.313Z,101209.88
2022-08-28T14:13:27.616Z,101208.56
2022-08-28T14:15:55.612Z,101206.84
2022-08-28T14:18:24.789Z,101201.69
2022-08-28T14:20:52.438Z,101198.78
2022-08-28T14:23:20.281Z,101203.94
2022-08-28T14:25:49.067Z,101197.16
2022-08-28T14:28:17.076Z,101201.22
2022-08-28T14:30:47.093Z,101196.44
2022-08-28T14:33:18.552Z,101195.69
2022-08-28T14:35:48.756Z,101206.19
2022-08-28T14:38:16.652Z,101196.88
2022-08-28T14:40:44.721Z,101189.63
2022-08-28T14:43:13.440Z,101198.84
2022-08-28T14:45:45.764Z,101209.50
2022-08-28T14:48:14.355Z,101208.88
2022-08-28T14:50:42.416Z,101201.63
2022-08-28T14:53:11.657Z,101200.06
2022-08-28T14:55:40.636Z,101196.19
2022-08-28T14:58:08.318Z,101196.97
2022-08-28T15:00:39.335Z,101197.59
2022-08-28T15:03:07.676Z,101180.09
2022-08-28T15:05:35.512Z,101191.88
2022-08-28T15:08:03.427Z,101195.78
2022-08-28T15:10:32.370Z,101195.56
2022-08-28T15:12:59.956Z,101187.53
2022-08-28T15:15:27.690Z,101194.88
2022-08-28T15:17:55.327Z,101194.50
2022-08-28T15:20:22.970Z,101181.47
2022-08-28T15:22:50.548Z,101195.66
2022-08-28T15:25:19.058Z,101188.97
2022-08-28T15:27:48.040Z,101190.66
2022-08-28T15:30:15.660Z,101187.38
2022-08-28T15:32:46.040Z,101191.66
2022-08-28T15:35:13.625Z,101190.84
2022-08-28T15:37:41.234Z,101189.81
2022-08-28T15:40:27.061Z,101186.91
2022-08-28T15:42:56.076Z,101189.31
2022-08-28T15:45:23.684Z,101180.94
2022-08-28T15:47:51.607Z,101178.31
2022-08-28T15:50:19.996Z,101174.81
2022-08-28T15:52:47.956Z,101174.94
2022-08-28T15:55:15.616Z,101181.03
2022-08-28T15:57:43.230Z,101174.63
2022-08-28T16:00:13.457Z,101188.97
2022-08-28T16:02:41.068Z,101177.03
2022-08-28T16:05:09.060Z,101183.00
2022-08-28T16:07:36.675Z,101175.38
2022-08-28T16:10:06.950Z,101180.00
2022-08-28T16:12:34.853Z,101174.69
2022-08-28T16:15:02.723Z,101179.47
2022-08-28T16:17:31.877Z,101171.00
2022-08-28T16:19:59.435Z,101166.06
2022-08-28T16:22:27.531Z,101158.59
2022-08-28T16:24:55.176Z,101172.31
2022-08-28T16:27:23.798Z,101166.84
2022-08-28T16:29:52.986Z,101163.19
2022-08-28T16:32:21.261Z,101164.50
2022-08-28T16:34:50.634Z,101174.13
2022-08-28T16:37:20.843Z,101175.38
2022-08-28T16:39:49.349Z,101172.81
2022-08-28T16:42:17.434Z,101175.28
2022-08-28T16:44:45.074Z,101179.69
2022-08-28T16:47:13.105Z,101176.97
2022-08-28T16:49:40.753Z,101177.25
2022-08-28T16:52:09.789Z,101179.88
2022-08-28T16:54:37.610Z,101174.22
2022-08-28T16:57:13.720Z,101176.69
2022-08-28T16:59:41.348Z,101179.66
2022-08-28T17:02:09.753Z,101178.22
2022-08-28T17:04:40.921Z,101177.94
2022-08-28T17:07:10.079Z,101169.03
2022-08-28T17:09:37.637Z,101164.22
2022-08-28T17:12:05.354Z,101162.94
2022-08-28T17:14:33.443Z,101166.84
2022-08-28T17:17:01.065Z,101167.22
2022-08-28T17:19:28.934Z,101174.81
2022-08-28T17:22:14.091Z,101170.81
2022-08-28T17:24:43.091Z,101177.25
2022-08-28T17:27:10.782Z,101173.19
2022-08-28T17:29:39.206Z,101175.50
2022-08-28T17:32:07.878Z,101181.47
2022-08-28T17:34:35.880Z,101180.00
2022-08-28T17:37:03.962Z,101178.88
2022-08-28T17:39:31.744Z,101187.16
2022-08-28T17:42:00.943Z,101193.56
2022-08-28T17:44:28.636Z,101188.78
2022-08-28T17:46:56.569Z,101196.31
2022-08-28T17:49:24.282Z,101196.34
2022-08-28T17:51:52.134Z,101196.81
2022-08-28T17:54:21.487Z,101201.97
2022-08-28T17:56:49.744Z,101201.47
2022-08-28T17:59:19.236Z,101199.00
2022-08-28T18:01:47.441Z,101204.78
2022-08-28T18:04:21.619Z,101198.59
2022-08-28T18:06:54.053Z,101199.63
2022-08-28T18:09:22.060Z,101198.28
2022-08-28T18:11:49.691Z,101213.97
2022-08-28T18:14:18.753Z,101208.78
2022-08-28T18:16:47.010Z,101206.84
2022-08-28T18:19:16.164Z,101202.38
2022-08-28T18:21:43.758Z,101205.78
2022-08-28T18:24:12.954Z,101209.88
2022-08-28T18:26:40.976Z,101211.09
2022-08-28T18:29:08.650Z,101214.94
2022-08-28T18:31:37.758Z,101209.78
2022-08-28T18:34:05.448Z,101220.03
2022-08-28T18:36:33.052Z,101222.97
2022-08-28T18:39:00.754Z,101227.84
2022-08-28T18:41:41.549Z,101231.78
2022-08-28T18:44:12.387Z,101229.91
2022-08-28T18:46:41.445Z,101238.66
2022-08-28T18:49:09.291Z,101243.19
2022-08-28T18:51:37.420Z,101236.25
2022-08-28T18:54:05.318Z,101246.03
2022-08-28T18:56:33.941Z,101248.84
2022-08-28T18:59:04.310Z,101251.84
2022-08-28T19:01:32.070Z,101252.03
2022-08-28T19:04:01.333Z,101252.56
2022-08-28T19:06:29.110Z,101252.81
2022-08-28T19:08:56.907Z,101258.28
2022-08-28T19:11:24.794Z,101264.16
2022-08-28T19:13:52.577Z,101261.50
2022-08-28T19:16:20.917Z,101271.13
2022-08-28T19:18:48.809Z,101269.63
2022-08-28T19:21:22.317Z,101269.31
2022-08-28T19:23:51.838Z,101265.81
2022-08-28T19:26:24.431Z,101265.88
2022-08-28T19:28:52.306Z,101272.13
2022-08-28T19:31:19.962Z,101279.56
2022-08-28T19:33:47.828Z,101270.22
2022-08-28T19:36:15.479Z,101272.00
2022-08-28T19:38:44.524Z,101274.78
2022-08-28T19:41:13.044Z,101275.38
2022-08-28T19:43:43.292Z,101273.97
2022-08-28T19:46:18.257Z,101273.47
2022-08-28T19:48:48.462Z,101287.91
2022-08-28T19:51:17.435Z,101289.94
2022-08-28T19:53:46.865Z,101295.38
2022-08-28T19:56:14.571Z,101302.53
2022-08-28T19:58:42.369Z,101310.88
2022-08-28T20:01:10.502Z,101306.41
2022-08-28T20:03:40.133Z,101310.78
2022-08-28T20:06:08.282Z,101317.16
2022-08-28T20:08:36.510Z,101312.84
2022-08-28T20:11:05.678Z,101321.75
2022-08-28T20:13:33.561Z,101322.03
2022-08-28T20:16:04.412Z,101320.47
2022-08-28T20:18:33.319Z,101317.75
2022-08-28T20:21:01.858Z,101317.94
2022-08-28T20:23:29.612Z,101316.72
2022-08-28T20:25:57.231Z,101314.13
2022-08-28T20:28:26.279Z,101327.50
2022-08-28T20:30:53.973Z,101319.00
2022-08-28T20:33:22.440Z,101317.44
2022-08-28T20:35:59.980Z,101318.16
2022-08-28T20:38:27.748Z,101320.31
2022-08-28T20:41:03.163Z,101327.72
2022-08-28T20:43:32.429Z,101333.97
2022-08-28T20:46:00.749Z,101328.34
2022-08-28T20:48:28.811Z,101339.31
2022-08-28T20:50:56.778Z,101338.88
2022-08-28T20:53:36.949Z,101343.41
2022-08-28T20:56:06.835Z,101341.44
2022-08-28T20:58:36.084Z,101337.94
2022-08-28T21:01:04.322Z,101340.75
2022-08-28T21:03:32.031Z,101347.97
2022-08-28T21:05:59.641Z,101349.81
2022-08-28T21:08:27.220Z,101348.19
2022-08-28T21:10:54.906Z,101349.44
2022-08-28T21:13:23.631Z,101353.84
2022-08-28T21:15:52.605Z,101356.75
2022-08-28T21:18:20.209Z,101356.81
2022-08-28T21:20:48.064Z,101357.34
2022-08-28T21:23:16.153Z,101367.91
2022-08-28T21:25:43.833Z,101364.41
2022-08-28T21:28:11.435Z,101367.38
2022-08-28T21:30:41.435Z,101372.69
2022-08-28T21:33:10.463Z,101378.41
2022-08-28T21:35:38.127Z,101372.41
2022-08-28T21:38:05.708Z,101378.78
2022-08-28T21:40:35.162Z,101380.78
2022-08-28T21:43:03.132Z,101371.19
2022-08-28T21:45:30.885Z,101374.78
2022-08-28T21:47:58.515Z,101374.91
2022-08-28T21:50:29.018Z,101378.78
2022-08-28T21:52:56.741Z,101379.66
2022-08-28T21:55:24.880Z,101383.19
2022-08-28T21:57:52.560Z,101381.75
2022-08-28T22:00:21.622Z,101387.03
2022-08-28T22:02:49.416Z,101388.81
2022-08-28T22:05:17.193Z,101390.47
2022-08-28T22:07:46.347Z,101391.47
2022-08-28T22:10:14.939Z,101387.16
2022-08-28T22:12:42.754Z,101393.09
2022-08-28T22:15:10.607Z,101393.13
2022-08-28T22:17:38.479Z,101390.75
2022-08-28T22:20:06.408Z,101397.81
2022-08-28T22:22:51.316Z,101397.81
2022-08-28T22:25:20.374Z,101393.66
2022-08-28T22:27:47.999Z,101404.72
2022-08-28T22:30:15.632Z,101404.91
2022-08-28T22:32:45.197Z,101405.75
2022-08-28T22:35:12.904Z,101404.41
2022-08-28T22:37:40.770Z,101408.00
2022-08-28T22:40:13.275Z,101412.56
2022-08-28T22:42:42.939Z,101415.56
2022-08-28T22:45:11.158Z,101417.25
2022-08-28T22:47:39.525Z,101414.78
2022-08-28T22:50:07.687Z,101415.66
2022-08-28T22:52:35.289Z,101412.13
2022-08-28T22:55:02.866Z,101423.72
2022-08-28T22:57:34.341Z,101415.47
2022-08-28T23:00:04.633Z,101415.56
2022-08-28T23:02:32.327Z,101406.84
2022-08-28T23:04:59.940Z,101413.84
2022-08-28T23:07:27.547Z,101414.06
2022-08-28T23:09:55.552Z,101413.66
2022-08-28T23:12:23.251Z,101414.53
2022-08-28T23:14:50.940Z,101415.78
2022-08-28T23:17:20.312Z,101421.19
2022-08-28T23:19:48.131Z,101405.44
2022-08-28T23:22:16.011Z,101414.31
2022-08-28T23:24:43.674Z,101413.63
2022-08-28T23:27:34.875Z,101414.59
2022-08-28T23:29:58.934Z,101420.19
2022-08-28T23:32:27.946Z,101418.25
2022-08-28T23:34:56.002Z,101411.69
2022-08-28T23:37:23.622Z,101413.53
2022-08-28T23:39:51.261Z,101422.47
2022-08-28T23:42:22.131Z,101417.19
2022-08-28T23:44:49.934Z,101416.34
2022-08-28T23:47:17.602Z,101419.13
2022-08-28T23:49:47.245Z,101413.03
2022-08-28T23:52:14.882Z,101418.41
2022-08-28T23:54:42.489Z,101419.38
2022-08-28T23:57:11.094Z,101407.13
2022-08-28T23:59:38.881Z,101420.16
